Accueil
METAR-TAF:

METAR-TAF

Aéroports :

Luni

Sarzana, Italie

latitude: 44-05N, longitude: 009-59E, altitude: 9 m

Observation

Le bulletin a été fait il y a 9 heures et 51 minutes, à 12:55 UTC
Température 13°C
Humidité 38%
Pression 1009 hPa
Visibilité 10 km ou plus
Quelques nuages à une hauteur de 4000 ft

METAR: LIQW 031255Z /////KT 9999 FEW040 13/M01 Q1009 RMK FEW VIS MIN 9999 WIND THR18 02009KT BLU

Heure: 23:46 (22:46 UTC)

Prévision

Le bulletin a été fait il y a 11 heures et 46 minutes, à 11:00 UTC
Prévision valable du 03 à 12 UTC au 03 à 21 UTC
Vent 10 kt de nord/nord-est
Visibilité 10 km ou plus
Quelques nuages à une hauteur de 3000 ft

TAF: LIQW 031100Z 0312/0321 02010KT 9999 FEW030

Observations et prévisions météorologiques de plus de 4000 aéroports (messages METAR et TAF).

Les stations disponibles sont représentées par des disques jaunes et rouges sur la carte.

Passer la souris dessus pour voir le nom de la station.

Cliquer dessus pour voir les observations et prévisions météorologiques.

Pour changer de carte: cliquez sur les boutons verts avec une croix noire pour zoomer, sur le bouton vert avec un tiret pour effectuer un zoom arrière, ou sur les flèches vertes pour les cartes adjacentes.


METAR-TAF: